Time;durP1;ratioP1;P1;durP2;ratioP2;P2;SDS_P1;SDS_P2;PMS_P1;PMS_P2;Temp;Humidity;BMP_temperature;BMP_pressure;BME280_temperature;BME280_humidity;BME280_pressure;Samples;Min_cycle;Max_cycle;Signal;HPM_P1;HPM_P2
2022/11/01 00:01:35;;;;;;;8.52;3.53;;;;;;;15.78;68.47;100796.75;5088956;28;20036;-62
2022/11/01 00:04:04;;;;;;;10.32;4.05;;;;;;;15.78;68.53;100794.03;5085204;28;20056;-63
2022/11/01 00:06:32;;;;;;;8.15;4.07;;;;;;;15.79;68.65;100794.84;5094190;28;20410;-62
2022/11/01 00:09:00;;;;;;;8.88;3.63;;;;;;;15.80;68.64;100786.47;5087833;28;20090;-63
2022/11/01 00:11:27;;;;;;;8.20;3.88;;;;;;;15.78;68.76;100780.47;5089928;28;20100;-62
2022/11/01 00:13:55;;;;;;;9.82;3.72;;;;;;;15.82;68.72;100792.44;5100058;28;20035;-62
2022/11/01 00:16:23;;;;;;;8.35;3.70;;;;;;;15.82;68.69;100789.72;5093784;28;20112;-62
2022/11/01 00:18:51;;;;;;;8.23;3.92;;;;;;;15.82;68.93;100781.59;5097764;28;20053;-63
2022/11/01 00:21:20;;;;;;;10.38;4.40;;;;;;;15.82;68.93;100778.06;5088838;28;20472;-63
2022/11/01 00:23:48;;;;;;;10.90;3.75;;;;;;;15.86;68.97;100784.63;5089546;28;20052;-62
2022/11/01 00:26:18;;;;;;;6.53;3.17;;;;;;;15.85;69.04;100781.09;5088545;28;20048;-63
2022/11/01 00:28:46;;;;;;;9.07;3.60;;;;;;;15.85;69.09;100783.78;5085115;28;20051;-62
2022/11/01 00:31:15;;;;;;;7.68;3.50;;;;;;;15.85;69.18;100777.56;5085513;28;20056;-62
2022/11/01 00:33:43;;;;;;;10.20;4.00;;;;;;;15.84;69.15;100782.16;5089545;28;20112;-63
2022/11/01 00:36:11;;;;;;;7.57;4.07;;;;;;;15.85;69.17;100778.38;5087128;28;20059;-62
2022/11/01 00:38:40;;;;;;;7.75;3.78;;;;;;;15.85;69.27;100788.41;5086610;28;20045;-62
2022/11/01 00:41:08;;;;;;;10.07;3.40;;;;;;;15.86;69.08;100781.91;5084172;28;20059;-63
2022/11/01 00:43:36;;;;;;;10.80;3.65;;;;;;;15.86;69.11;100787.31;5091427;28;20042;-62
2022/11/01 00:46:04;;;;;;;9.32;3.80;;;;;;;15.87;69.29;100783.53;5084254;28;20041;-62
2022/11/01 00:48:32;;;;;;;10.35;4.05;;;;;;;15.87;69.25;100783.53;5096195;28;20044;-62
2022/11/01 00:51:00;;;;;;;10.10;3.55;;;;;;;15.87;69.33;100783.53;5091692;28;20228;-62
2022/11/01 00:53:27;;;;;;;6.35;3.40;;;;;;;15.88;69.39;100777.84;5088490;28;20059;-63
2022/11/01 00:56:01;;;;;;;9.82;3.75;;;;;;;15.89;69.51;100778.69;5090076;28;20044;-63
2022/11/01 00:58:29;;;;;;;11.65;4.45;;;;;;;15.89;69.53;100773.25;5085549;28;20046;-63
2022/11/01 01:00:57;;;;;;;7.28;3.00;;;;;;;15.88;69.61;100769.72;5091645;28;20048;-62
2022/11/01 01:03:25;;;;;;;10.68;3.40;;;;;;;15.88;69.66;100766.19;5084358;28;20064;-62
2022/11/01 01:05:53;;;;;;;7.60;3.17;;;;;;;15.88;69.70;100767.03;5084144;28;20051;-62
2022/11/01 01:08:22;;;;;;;10.40;4.03;;;;;;;15.89;69.50;100765.94;5090163;28;20088;-63
2022/11/01 01:10:50;;;;;;;6.78;3.35;;;;;;;15.87;69.84;100762.69;5084253;28;20456;-62
2022/11/01 01:13:20;;;;;;;8.63;3.05;;;;;;;15.90;69.79;100764.06;5087516;28;20467;-62
2022/11/01 01:15:48;;;;;;;10.98;4.10;;;;;;;15.91;69.76;100760.25;5086909;28;20048;-62
2022/11/01 01:18:16;;;;;;;10.65;3.55;;;;;;;16.02;69.86;100758.44;5102050;28;20052;-63
2022/11/01 01:20:44;;;;;;;13.52;4.63;;;;;;;16.07;69.62;100762.00;5083398;28;20053;-62
2022/11/01 01:23:12;;;;;;;7.53;3.42;;;;;;;16.00;69.61;100758.72;5092878;28;20055;-63
2022/11/01 01:25:41;;;;;;;9.57;3.15;;;;;;;15.95;69.91;100754.06;5093010;28;20047;-63
2022/11/01 01:28:09;;;;;;;10.43;3.08;;;;;;;15.93;69.81;100764.34;5093373;28;20053;-63
2022/11/01 01:30:41;;;;;;;10.05;4.32;;;;;;;15.93;70.14;100755.41;5084485;28;20048;-63
2022/11/01 01:33:09;;;;;;;7.40;3.22;;;;;;;15.93;69.85;100767.06;5088402;28;20051;-63
2022/11/01 01:35:41;;;;;;;9.05;3.60;;;;;;;15.92;69.95;100768.13;5096231;28;20098;-63
2022/11/01 01:38:09;;;;;;;10.23;3.78;;;;;;;15.92;70.05;100773.56;5086487;28;20055;-62
2022/11/01 01:40:37;;;;;;;6.50;3.17;;;;;;;15.91;70.14;100766.50;5092002;28;20049;-63
2022/11/01 01:43:04;;;;;;;8.25;3.45;;;;;;;15.94;70.26;100757.03;5101365;28;20049;-63
2022/11/01 01:45:36;;;;;;;10.65;3.10;;;;;;;15.93;70.08;100756.22;5099264;28;20044;-63
2022/11/01 01:48:12;;;;;;;9.88;3.88;;;;;;;15.93;70.25;100763.53;5091527;28;20055;-62
2022/11/01 01:50:44;;;;;;;8.57;3.40;;;;;;;15.92;70.31;100751.06;5091877;28;20151;-62
2022/11/01 01:53:17;;;;;;;9.82;4.20;;;;;;;15.94;70.19;100752.44;5090681;28;20037;-62
2022/11/01 01:55:50;;;;;;;11.05;3.70;;;;;;;15.94;70.39;100757.84;5098880;28;20062;-63
2022/11/01 01:58:22;;;;;;;5.57;3.10;;;;;;;15.95;70.36;100761.38;5090086;28;20059;-63
2022/11/01 02:00:50;;;;;;;8.88;3.83;;;;;;;15.97;70.30;100759.22;5095904;28;20048;-63
2022/11/01 02:03:22;;;;;;;8.05;3.28;;;;;;;15.98;70.55;100760.03;5088096;28;20433;-62
2022/11/01 02:05:54;;;;;;;7.35;3.35;;;;;;;15.97;70.31;100759.22;5093280;28;20044;-62
2022/11/01 02:08:27;;;;;;;7.97;3.72;;;;;;;15.97;70.27;100751.09;5099581;28;20051;-62
2022/11/01 02:10:56;;;;;;;7.30;3.38;;;;;;;15.98;70.34;100763.56;5103685;28;20509;-63
2022/11/01 02:13:24;;;;;;;6.03;3.10;;;;;;;15.97;70.23;100761.94;5092558;28;20036;-63
2022/11/01 02:16:15;;;;;;;9.48;3.85;;;;;;;15.99;70.40;100761.69;5086626;28;20060;-62
2022/11/01 02:18:48;;;;;;;11.77;3.60;;;;;;;15.98;70.30;100763.56;5093527;28;21194;-62
2022/11/01 02:21:51;;;;;;;7.05;3.25;;;;;;;15.99;70.27;100767.09;5092800;28;20056;-62
2022/11/01 02:25:02;;;;;;;5.03;3.17;;;;;;;15.97;70.45;100770.06;5091984;28;20071;-62
2022/11/01 02:27:42;;;;;;;8.00;3.97;;;;;;;16.00;70.54;100757.88;5096556;28;20044;-62
2022/11/01 02:30:15;;;;;;;8.18;3.22;;;;;;;15.99;70.38;100757.06;5094228;28;20048;-63
2022/11/01 02:33:11;;;;;;;8.00;3.30;;;;;;;15.99;70.50;100754.34;5095025;28;20044;-63
2022/11/01 02:35:55;;;;;;;8.15;3.15;;;;;;;15.99;70.67;100754.34;5084642;28;20051;-63
2022/11/01 02:38:28;;;;;;;7.80;3.50;;;;;;;15.98;70.46;100760.84;5088778;28;20113;-63
2022/11/01 02:41:03;;;;;;;9.63;3.58;;;;;;;16.05;70.28;100752.50;5090828;28;20044;-63
2022/11/01 02:43:46;;;;;;;4.85;2.50;;;;;;;16.03;70.45;100765.50;5093052;28;20055;-62
2022/11/01 02:49:03;;;;;;;6.75;2.97;;;;;;;16.01;70.51;100775.78;5095721;28;20070;-62
2022/11/01 02:51:33;;;;;;;9.20;3.35;;;;;;;16.00;70.66;100774.97;5088230;28;20062;-63
2022/11/01 02:54:05;;;;;;;7.18;3.05;;;;;;;16.02;70.85;100772.00;5088206;28;20489;-63
2022/11/01 02:56:33;;;;;;;5.22;2.92;;;;;;;16.01;70.66;100771.19;5088412;28;20048;-63
2022/11/01 02:59:01;;;;;;;7.78;3.28;;;;;;;16.00;70.73;100783.09;5097154;28;20056;-63
2022/11/01 03:01:33;;;;;;;5.53;2.92;;;;;;;16.00;70.79;100776.88;5096855;28;20191;-62
2022/11/01 03:04:03;;;;;;;5.15;2.85;;;;;;;16.00;70.78;100782.28;5093117;28;20052;-62
2022/11/01 03:06:35;;;;;;;10.20;3.72;;;;;;;16.01;70.75;100781.22;5095836;28;20048;-63
2022/11/01 03:09:07;;;;;;;5.45;2.75;;;;;;;16.00;70.80;100790.41;5095411;28;20040;-63
2022/11/01 03:11:46;;;;;;;10.35;3.20;;;;;;;16.02;70.81;100796.41;5086184;28;20040;-63
2022/11/01 03:14:24;;;;;;;7.85;2.90;;;;;;;16.01;71.04;100794.75;5098234;28;20044;-63
2022/11/01 03:16:59;;;;;;;7.60;3.42;;;;;;;16.01;70.71;100798.28;5096593;28;20044;-63
2022/11/01 03:19:37;;;;;;;5.90;3.15;;;;;;;16.02;70.71;100802.63;5092061;28;20045;-63
2022/11/01 03:22:10;;;;;;;15.68;3.55;;;;;;;16.02;70.81;100808.06;5092322;28;20056;-63
2022/11/01 03:24:45;;;;;;;7.38;3.17;;;;;;;16.03;70.87;100808.88;5088190;28;20052;-63
2022/11/01 03:27:19;;;;;;;6.28;2.70;;;;;;;16.02;70.92;100810.78;5089925;28;20050;-62
2022/11/01 03:29:55;;;;;;;7.97;3.47;;;;;;;16.02;70.94;100818.09;5090671;28;20106;-62
2022/11/01 03:32:27;;;;;;;7.93;2.75;;;;;;;16.09;70.99;100815.97;5089232;28;20052;-62
2022/11/01 03:34:59;;;;;;;7.22;3.17;;;;;;;16.13;70.53;100841.50;5094748;28;20044;-63
2022/11/01 03:37:29;;;;;;;8.27;2.88;;;;;;;16.06;70.57;100843.59;5088851;28;20048;-62
2022/11/01 03:40:02;;;;;;;9.30;2.90;;;;;;;16.03;70.09;100855.78;5095163;28;20052;-62
2022/11/01 03:42:32;;;;;;;9.70;2.55;;;;;;;16.05;69.76;100864.47;5092115;28;20118;-63
2022/11/01 03:45:06;;;;;;;3.97;1.88;;;;;;;16.03;67.47;100869.34;5089961;28;20059;-62
2022/11/01 03:47:35;;;;;;;4.97;1.63;;;;;;;16.01;66.51;100866.06;5091577;28;20123;-62
2022/11/01 03:50:17;;;;;;;4.75;1.65;;;;;;;15.98;65.64;100861.16;5094317;28;20055;-62
2022/11/01 03:52:45;;;;;;;3.67;1.70;;;;;;;15.97;65.97;100866.84;5085694;28;20052;-62
2022/11/01 03:55:19;;;;;;;6.93;1.77;;;;;;;15.97;66.38;100867.66;5096407;28;20428;-62
2022/11/01 03:57:48;;;;;;;10.57;2.28;;;;;;;15.95;66.57;100873.34;5089910;28;20043;-63
2022/11/01 04:00:18;;;;;;;8.73;1.70;;;;;;;15.96;66.61;100887.69;5091807;28;20045;-62
2022/11/01 04:02:45;;;;;;;3.30;1.42;;;;;;;15.93;66.34;100894.44;5087245;28;20044;-62
2022/11/01 04:05:15;;;;;;;3.70;1.50;;;;;;;15.92;66.02;100903.66;5086056;28;20051;-62
2022/11/01 04:07:43;;;;;;;5.03;1.88;;;;;;;15.94;66.89;100909.66;5090777;28;20048;-63
2022/11/01 04:10:12;;;;;;;4.75;1.50;;;;;;;15.93;66.09;100910.72;5086725;28;20052;-62
2022/11/01 04:12:40;;;;;;;2.55;1.20;;;;;;;15.93;64.91;100909.91;5092107;28;20107;-62
2022/11/01 04:20:53;;;;;;;5.78;1.20;;;;;;;15.93;65.66;100945.97;5084230;28;20060;-63
2022/11/01 04:23:20;;;;;;;4.75;1.10;;;;;;;15.91;64.53;100941.88;5088163;28;20103;-62
2022/11/01 04:25:48;;;;;;;2.70;1.20;;;;;;;15.91;64.74;100955.41;5090123;28;20048;-62
2022/11/01 04:28:16;;;;;;;1.92;1.20;;;;;;;15.89;63.40;100955.66;5090459;28;20055;-62
2022/11/01 04:30:43;;;;;;;4.30;1.40;;;;;;;15.89;63.93;100958.38;5090671;28;20063;-62
2022/11/01 04:33:11;;;;;;;5.13;1.30;;;;;;;15.87;62.67;100965.13;5084728;28;20063;-63
2022/11/01 04:35:39;;;;;;;5.60;1.17;;;;;;;15.84;63.33;100971.06;5097267;28;20174;-63
2022/11/01 04:38:10;;;;;;;3.80;1.00;;;;;;;15.83;62.98;100977.53;5089154;28;20048;-63
2022/11/01 04:40:38;;;;;;;5.40;1.05;;;;;;;15.83;62.93;100982.97;5087548;28;20056;-62
2022/11/01 04:43:06;;;;;;;4.28;1.48;;;;;;;15.90;63.87;100989.00;5089737;28;20052;-62
2022/11/01 04:45:33;;;;;;;2.13;0.80;;;;;;;15.85;64.09;100997.91;5092092;28;20150;-63
2022/11/01 04:48:02;;;;;;;3.88;1.42;;;;;;;15.81;63.72;100996.78;5085361;28;20052;-62
2022/11/01 04:50:31;;;;;;;2.72;1.00;;;;;;;15.80;63.02;101008.69;5086549;28;20052;-62
2022/11/01 04:52:59;;;;;;;5.70;1.67;;;;;;;15.80;63.74;101002.44;5090641;28;20045;-62
2022/11/01 04:55:28;;;;;;;2.47;1.20;;;;;;;15.78;63.74;101013.53;5095692;28;20048;-62
2022/11/01 04:57:56;;;;;;;4.70;1.33;;;;;;;15.78;63.62;101015.44;5089157;28;20054;-62
2022/11/01 05:00:25;;;;;;;3.85;1.13;;;;;;;15.76;63.44;101039.25;5092729;28;20040;-62
2022/11/01 05:03:00;;;;;;;1.77;1.00;;;;;;;15.74;63.25;101042.22;5091047;28;20108;-62
2022/11/01 05:05:28;;;;;;;2.63;0.98;;;;;;;15.74;63.17;101044.09;5095261;28;20044;-62
2022/11/01 05:08:00;;;;;;;4.13;1.10;;;;;;;15.74;63.16;101054.94;5084370;28;20048;-63
2022/11/01 05:10:35;;;;;;;3.78;1.25;;;;;;;15.73;63.02;101064.13;5096018;28;20051;-62
2022/11/01 05:13:03;;;;;;;4.80;1.15;;;;;;;15.71;63.12;101077.94;5086070;28;20052;-62
2022/11/01 05:15:31;;;;;;;2.33;0.80;;;;;;;15.70;63.52;101065.47;5099533;28;20187;-62
2022/11/01 05:18:00;;;;;;;3.55;1.00;;;;;;;15.70;63.33;101076.28;5091384;28;20753;-63
2022/11/01 05:20:29;;;;;;;3.10;1.08;;;;;;;15.70;63.33;101078.19;5096676;28;20076;-62
2022/11/01 05:22:58;;;;;;;3.20;0.98;;;;;;;15.68;63.44;101077.63;5097610;28;20055;-62
2022/11/01 05:25:27;;;;;;;2.95;1.00;;;;;;;15.64;63.33;101077.28;5090282;28;20191;-63
2022/11/01 05:28:03;;;;;;;1.98;0.90;;;;;;;15.67;63.72;101078.69;5097852;28;20048;-63
2022/11/01 05:30:31;;;;;;;3.22;1.00;;;;;;;15.80;64.40;101089.16;5093264;28;20067;-63
2022/11/01 05:33:00;;;;;;;3.13;0.98;;;;;;;15.69;62.96;101090.91;5089252;28;20045;-63
2022/11/01 05:35:29;;;;;;;4.53;1.00;;;;;;;15.67;63.49;101089.53;5087681;28;20044;-62
2022/11/01 05:37:57;;;;;;;4.47;0.90;;;;;;;15.63;63.73;101084.59;5091845;28;20054;-62
2022/11/01 05:40:25;;;;;;;7.65;1.15;;;;;;;15.72;64.15;101101.25;5090915;28;20074;-62
2022/11/01 05:42:53;;;;;;;2.55;0.65;;;;;;;15.68;63.50;101091.97;5088911;28;20044;-62
2022/11/01 05:45:22;;;;;;;1.67;0.85;;;;;;;15.89;63.11;101103.94;5096025;28;20045;-62
2022/11/01 05:47:49;;;;;;;2.40;0.70;;;;;;;15.79;62.97;101096.47;5097686;28;20050;-62
2022/11/01 05:50:17;;;;;;;1.98;0.70;;;;;;;15.75;63.39;101108.88;5091208;28;20055;-62
2022/11/01 05:52:45;;;;;;;6.45;0.85;;;;;;;15.69;63.56;101103.66;5092197;28;20056;-62
2022/11/01 05:55:13;;;;;;;4.95;1.20;;;;;;;15.73;63.85;101115.63;5093060;28;20055;-62
2022/11/01 05:57:40;;;;;;;2.35;1.00;;;;;;;15.75;64.06;101116.19;5092118;28;20046;-64
2022/11/01 06:00:09;;;;;;;8.57;1.13;;;;;;;15.68;63.70;101124.50;5105077;28;20055;-63
2022/11/01 06:02:38;;;;;;;2.22;0.93;;;;;;;15.71;64.29;101132.13;5093487;28;20548;-63
2022/11/01 06:05:07;;;;;;;5.68;1.30;;;;;;;15.76;63.47;101129.50;5092165;28;20107;-62
2022/11/01 06:07:36;;;;;;;12.93;1.52;;;;;;;15.70;64.52;101137.81;5094026;28;20044;-63
2022/11/01 06:10:05;;;;;;;2.33;0.93;;;;;;;15.69;63.79;101125.31;5089185;28;20044;-63
2022/11/01 06:12:32;;;;;;;1.67;1.20;;;;;;;15.82;64.74;101141.22;5088057;28;20048;-63
2022/11/01 06:15:00;;;;;;;3.28;0.93;;;;;;;15.91;63.07;101134.31;5095047;28;20052;-63
2022/11/01 06:17:28;;;;;;;4.03;1.15;;;;;;;15.83;63.71;101156.41;5088604;28;20481;-63
2022/11/01 06:19:57;;;;;;;4.80;1.20;;;;;;;15.75;64.66;101156.84;5092209;28;20044;-64
2022/11/01 06:22:24;;;;;;;2.88;1.00;;;;;;;15.67;63.33;101162.69;5089903;28;20072;-65
2022/11/01 06:24:52;;;;;;;3.03;1.20;;;;;;;15.65;63.87;101167.53;5088243;28;20056;-61
2022/11/01 06:27:20;;;;;;;3.28;1.05;;;;;;;15.59;63.66;101167.47;5101981;28;20048;-65
2022/11/01 06:29:48;;;;;;;4.25;1.08;;;;;;;15.56;64.04;101167.94;5091990;28;20433;-61
2022/11/01 06:32:15;;;;;;;2.78;0.88;;;;;;;15.65;64.68;101172.94;5094207;28;20058;-62
2022/11/01 06:34:43;;;;;;;3.50;1.15;;;;;;;15.73;63.59;101176.06;5094990;28;20047;-63
2022/11/01 06:37:13;;;;;;;4.10;1.00;;;;;;;15.62;63.36;101183.22;5085427;28;20084;-63
2022/11/01 06:39:40;;;;;;;3.80;1.08;;;;;;;15.63;65.18;101182.16;5092358;28;21344;-62
2022/11/01 06:42:09;;;;;;;2.63;1.00;;;;;;;15.62;64.08;101191.34;5085808;28;20048;-65
2022/11/01 06:44:36;;;;;;;3.67;1.20;;;;;;;15.58;63.90;101183.97;5090208;28;20058;-66
2022/11/01 06:47:04;;;;;;;4.15;1.10;;;;;;;15.56;63.78;101189.63;5098639;28;20056;-62
2022/11/01 06:49:32;;;;;;;4.30;1.00;;;;;;;15.52;63.89;101207.44;5097546;28;20391;-64
2022/11/01 06:51:59;;;;;;;5.13;1.05;;;;;;;15.49;63.53;101205.22;5105547;28;20396;-63
2022/11/01 06:54:29;;;;;;;2.58;0.80;;;;;;;15.60;63.28;101207.03;5100592;28;20044;-62
2022/11/01 06:56:56;;;;;;;4.20;1.15;;;;;;;15.55;63.71;101214.25;5088613;28;20048;-63
2022/11/01 06:59:24;;;;;;;5.43;1.23;;;;;;;15.50;63.78;101222.28;5093369;28;20067;-65
2022/11/01 07:01:52;;;;;;;4.00;1.10;;;;;;;15.46;63.62;101213.81;5105060;28;20060;-63
2022/11/01 07:04:21;;;;;;;3.92;1.20;;;;;;;15.46;63.56;101221.13;4735288;28;9999903;-62
2022/11/01 07:06:48;;;;;;;3.72;1.10;;;;;;;15.43;63.32;101230.56;5086576;28;20052;-62
2022/11/01 07:09:16;;;;;;;6.55;1.30;;;;;;;15.42;63.44;101231.63;5088219;28;20048;-63
2022/11/01 07:11:45;;;;;;;4.43;1.25;;;;;;;15.40;63.47;101231.06;5089719;28;20059;-62
2022/11/01 07:14:13;;;;;;;3.05;1.10;;;;;;;15.53;63.99;101247.00;5088662;28;20693;-63
2022/11/01 07:16:41;;;;;;;4.45;1.17;;;;;;;15.53;63.57;101257.00;5088370;28;20066;-63
2022/11/01 07:19:09;;;;;;;8.65;1.45;;;;;;;15.45;63.61;101262.81;5087487;28;20055;-63
2022/11/01 07:21:37;;;;;;;8.60;1.70;;;;;;;15.40;63.24;101268.16;5087972;28;20048;-63
2022/11/01 07:24:05;;;;;;;10.27;1.50;;;;;;;15.37;63.37;101268.63;5092276;28;20059;-63
2022/11/01 07:26:33;;;;;;;5.32;1.30;;;;;;;15.35;63.69;101274.31;5087145;28;20055;-63
2022/11/01 07:29:02;;;;;;;4.32;1.23;;;;;;;15.34;63.80;101280.78;5085795;28;20048;-63
2022/11/01 07:31:32;;;;;;;2.55;1.08;;;;;;;15.32;63.47;101282.09;5087494;28;20080;-63
2022/11/01 07:33:59;;;;;;;3.47;0.95;;;;;;;15.42;63.22;101293.13;5088539;28;20041;-63
2022/11/01 07:36:27;;;;;;;6.20;1.63;;;;;;;15.36;63.50;101288.66;5082440;28;20045;-62
2022/11/01 07:38:55;;;;;;;3.75;1.27;;;;;;;15.57;64.08;101294.25;5089014;28;20060;-63
2022/11/01 07:41:22;;;;;;;5.47;1.50;;;;;;;15.45;63.76;101298.03;5096095;28;20063;-63
2022/11/01 07:43:50;;;;;;;6.95;1.88;;;;;;;15.38;62.72;101297.38;5085424;28;20040;-63
2022/11/01 07:46:19;;;;;;;6.05;1.60;;;;;;;15.41;63.97;101295.00;5091215;28;20056;-63
2022/11/01 07:48:47;;;;;;;5.32;1.40;;;;;;;15.37;62.95;101301.97;5081801;28;20097;-63
2022/11/01 07:51:14;;;;;;;7.18;1.40;;;;;;;15.33;63.25;101300.81;5080991;28;20044;-63
2022/11/01 07:53:42;;;;;;;7.18;1.63;;;;;;;15.32;63.37;101310.00;5085808;28;20053;-63
2022/11/01 07:56:10;;;;;;;8.30;1.85;;;;;;;15.32;63.04;101320.81;5080981;28;20044;-63
2022/11/01 07:58:42;;;;;;;2.92;1.42;;;;;;;15.31;63.15;101324.59;5081698;28;20052;-62
2022/11/01 08:01:10;;;;;;;3.90;1.30;;;;;;;15.30;62.89;101312.94;5081239;28;20048;-62
2022/11/01 08:03:39;;;;;;;8.93;1.45;;;;;;;15.53;62.91;101312.00;5082123;28;20071;-63
2022/11/01 08:06:07;;;;;;;7.32;1.98;;;;;;;15.48;63.21;101327.34;5096561;28;20040;-63
2022/11/01 08:08:36;;;;;;;6.68;1.38;;;;;;;15.44;63.48;101334.31;5095950;28;20103;-63
2022/11/01 08:11:04;;;;;;;5.43;1.30;;;;;;;15.63;64.76;101330.34;5083674;28;20067;-63
2022/11/01 08:13:33;;;;;;;8.02;1.65;;;;;;;15.52;62.42;101344.78;5085985;28;20134;-63
2022/11/01 08:16:02;;;;;;;9.63;2.13;;;;;;;15.40;63.41;101336.69;5081921;28;20041;-63
2022/11/01 08:18:29;;;;;;;7.95;1.83;;;;;;;15.42;62.38;101348.09;5094619;28;20032;-62
2022/11/01 08:20:59;;;;;;;8.38;1.52;;;;;;;15.36;62.63;101348.25;5087078;28;20078;-62
2022/11/01 08:23:27;;;;;;;7.00;1.95;;;;;;;15.38;63.19;101348.81;5084143;28;20210;-62
2022/11/01 08:25:56;;;;;;;8.80;1.65;;;;;;;15.40;63.60;101350.22;5088417;28;20067;-62
2022/11/01 08:28:27;;;;;;;6.88;2.00;;;;;;;15.37;63.10;101352.59;5089355;28;20148;-62
2022/11/01 08:30:55;;;;;;;7.80;2.17;;;;;;;15.41;63.46;101359.19;5084836;28;20140;-62
2022/11/01 08:33:22;;;;;;;7.28;1.67;;;;;;;15.42;62.14;101356.22;5086150;28;20056;-62
2022/11/01 08:35:50;;;;;;;6.70;1.60;;;;;;;15.35;62.52;101368.28;5083320;28;20047;-63
2022/11/01 08:38:19;;;;;;;8.75;2.65;;;;;;;15.32;62.01;101374.16;5094121;28;20085;-62
2022/11/01 08:40:47;;;;;;;8.98;1.83;;;;;;;15.29;62.60;101375.47;5097306;28;20071;-62
2022/11/01 08:43:15;;;;;;;6.70;1.65;;;;;;;15.57;63.61;101366.56;5090075;28;20048;-62
2022/11/01 08:45:43;;;;;;;9.65;2.10;;;;;;;15.45;62.18;101369.28;5088145;28;20053;-62
2022/11/01 08:48:11;;;;;;;9.60;1.85;;;;;;;15.40;62.12;101379.22;5079918;28;20054;-62
2022/11/01 08:50:39;;;;;;;7.95;1.92;;;;;;;15.44;63.27;101385.78;5083122;28;20062;-64
2022/11/01 08:53:08;;;;;;;9.13;2.10;;;;;;;15.46;62.63;101375.53;5089023;28;20056;-62
2022/11/01 08:55:37;;;;;;;8.07;1.58;;;;;;;15.56;63.36;101386.56;5096308;28;20056;-63
2022/11/01 08:58:06;;;;;;;6.07;1.58;;;;;;;15.46;63.26;101379.06;5080723;28;20049;-62
2022/11/01 09:00:33;;;;;;;4.38;1.85;;;;;;;15.42;62.54;101380.59;5080051;28;20059;-63
2022/11/01 09:03:01;;;;;;;10.02;1.58;;;;;;;15.33;62.53;101384.75;5081322;28;20080;-63
2022/11/01 09:05:30;;;;;;;7.60;1.88;;;;;;;15.31;62.79;101392.31;5087775;28;20048;-64
2022/11/01 09:07:58;;;;;;;7.82;1.67;;;;;;;15.28;62.89;101396.31;5094633;28;20149;-64
2022/11/01 09:10:28;;;;;;;6.78;1.85;;;;;;;15.29;62.73;101397.13;5086529;28;20352;-63
2022/11/01 09:12:57;;;;;;;8.30;1.67;;;;;;;15.28;62.37;101401.72;5089631;28;20119;-64
2022/11/01 09:15:25;;;;;;;10.88;1.92;;;;;;;15.44;63.53;101397.44;5088271;28;20056;-63
2022/11/01 09:17:53;;;;;;;6.18;1.40;;;;;;;15.56;63.76;101400.94;5081922;28;20051;-63
2022/11/01 09:20:20;;;;;;;8.93;2.55;;;;;;;15.58;63.49;101404.25;5079885;28;20059;-63
2022/11/01 09:22:51;;;;;;;8.10;1.92;;;;;;;15.41;62.43;101399.81;5080426;28;20111;-62
2022/11/01 09:25:18;;;;;;;6.10;2.10;;;;;;;15.49;62.63;101412.97;5080321;28;20114;-63
2022/11/01 09:27:46;;;;;;;10.52;1.80;;;;;;;15.78;62.64;101402.97;5080405;28;20115;-64
2022/11/01 09:30:16;;;;;;;6.88;1.90;;;;;;;15.70;63.14;101406.06;5088436;28;20044;-64
2022/11/01 09:32:43;;;;;;;7.28;1.70;;;;;;;15.54;62.61;101407.66;5089552;28;20060;-63
2022/11/01 09:35:11;;;;;;;10.75;1.95;;;;;;;15.51;62.50;101400.84;5091580;28;20180;-64
2022/11/01 09:37:39;;;;;;;7.25;1.90;;;;;;;15.48;62.64;101404.03;5082816;28;20052;-63
2022/11/01 09:40:09;;;;;;;9.13;1.85;;;;;;;15.43;63.41;101420.19;5096689;28;20063;-63
2022/11/01 09:42:41;;;;;;;8.82;2.00;;;;;;;15.39;62.84;101421.72;5082006;28;20583;-63
2022/11/01 09:45:16;;;;;;;12.07;1.75;;;;;;;15.45;62.98;101433.47;5089131;28;20058;-63
2022/11/01 09:47:47;;;;;;;7.78;1.75;;;;;;;15.46;64.01;101425.13;5080690;28;20051;-64
2022/11/01 09:50:21;;;;;;;9.80;1.60;;;;;;;15.52;62.75;101442.28;5091214;28;20059;-63
2022/11/01 09:52:49;;;;;;;6.43;1.90;;;;;;;15.54;64.38;101448.28;5080312;28;20139;-62
2022/11/01 09:55:22;;;;;;;7.68;1.75;;;;;;;15.61;63.31;101440.84;5087979;28;20059;-63
2022/11/01 09:57:57;;;;;;;8.60;2.00;;;;;;;15.53;63.06;101447.47;5080960;28;20044;-62
2022/11/01 10:00:34;;;;;;;11.40;2.30;;;;;;;15.54;63.16;101456.44;5092828;28;20071;-62
2022/11/01 10:03:28;;;;;;;8.35;1.60;;;;;;;15.64;62.91;101453.91;5099493;28;20058;-63
2022/11/01 10:06:06;;;;;;;10.93;2.58;;;;;;;15.59;63.58;101464.69;5095831;28;20058;-63
2022/11/01 10:08:42;;;;;;;12.85;2.25;;;;;;;15.61;62.92;101459.81;5084518;28;20391;-63
2022/11/01 10:11:25;;;;;;;7.40;1.67;;;;;;;15.55;63.10;101467.03;5091149;28;20101;-63
2022/11/01 10:13:59;;;;;;;5.95;1.77;;;;;;;15.56;62.78;101463.25;5098236;28;20060;-63
2022/11/01 10:16:35;;;;;;;10.63;2.60;;;;;;;15.51;62.70;101475.88;5082146;28;20048;-63
2022/11/01 10:19:05;;;;;;;5.22;1.30;;;;;;;15.49;62.63;101478.00;5091426;28;20055;-63
2022/11/01 10:21:41;;;;;;;11.23;2.60;;;;;;;15.57;63.21;101478.47;5089520;28;20289;-63
2022/11/01 10:24:20;;;;;;;8.27;2.38;;;;;;;15.61;63.71;101474.19;5086698;28;20087;-64
2022/11/01 10:26:54;;;;;;;7.85;2.20;;;;;;;15.77;63.17;101467.19;5082725;28;20046;-63
2022/11/01 10:29:27;;;;;;;10.70;2.20;;;;;;;15.87;63.96;101472.81;5091510;28;20056;-64
2022/11/01 10:31:58;;;;;;;9.65;2.17;;;;;;;16.02;62.45;101480.41;5098046;28;20051;-64
2022/11/01 10:34:28;;;;;;;8.10;1.83;;;;;;;15.87;62.53;101483.66;5089588;28;20052;-64
2022/11/01 10:37:14;;;;;;;6.32;2.03;;;;;;;15.94;64.60;101468.06;5095055;28;20072;-64
2022/11/01 10:39:48;;;;;;;12.48;2.20;;;;;;;15.84;62.59;101477.91;5092355;28;20044;-65
2022/11/01 10:42:23;;;;;;;13.63;2.40;;;;;;;15.89;63.22;101483.41;5087598;28;20076;-64
2022/11/01 10:44:54;;;;;;;7.78;1.90;;;;;;;15.83;62.89;101476.25;5087921;28;20054;-63
2022/11/01 10:47:25;;;;;;;8.90;2.03;;;;;;;16.14;62.92;101486.59;5082359;28;20083;-64
2022/11/01 10:49:57;;;;;;;6.00;1.60;;;;;;;16.03;63.44;101479.34;5082710;28;20048;-65
2022/11/01 10:52:44;;;;;;;9.80;1.88;;;;;;;15.92;63.50;101478.34;5086903;28;20045;-63
2022/11/01 10:55:17;;;;;;;6.53;1.48;;;;;;;15.91;63.58;101476.69;5092275;28;20052;-64
2022/11/01 10:57:51;;;;;;;9.52;3.05;;;;;;;15.84;63.40;101480.59;5090521;28;20048;-64
2022/11/01 11:00:20;;;;;;;9.88;1.92;;;;;;;15.90;64.01;101474.22;5095654;28;20054;-64
2022/11/01 11:02:54;;;;;;;8.70;2.10;;;;;;;16.10;63.83;101469.19;5102809;28;20054;-64
2022/11/01 11:05:24;;;;;;;6.50;1.88;;;;;;;16.07;63.97;101468.84;5082168;28;20059;-64
2022/11/01 11:07:51;;;;;;;11.98;1.88;;;;;;;16.08;62.64;101475.91;5086502;28;20063;-63
2022/11/01 11:10:23;;;;;;;13.23;2.55;;;;;;;15.98;63.42;101481.16;5091908;28;20072;-64
2022/11/01 11:12:55;;;;;;;10.10;1.83;;;;;;;16.21;64.31;101481.03;5087700;28;20048;-64
2022/11/01 11:15:32;;;;;;;14.10;2.63;;;;;;;16.07;63.73;101456.09;5099361;28;20059;-64
2022/11/01 11:18:08;;;;;;;9.75;3.10;;;;;;;16.02;62.95;101475.00;5091508;28;20061;-65
2022/11/01 11:20:36;;;;;;;9.45;1.92;;;;;;;16.02;64.63;101466.03;5092515;28;20063;-65
2022/11/01 11:23:11;;;;;;;8.65;2.20;;;;;;;16.09;64.05;101470.25;5091264;28;20045;-65
2022/11/01 11:25:41;;;;;;;7.13;1.52;;;;;;;16.00;63.65;101479.84;5085230;28;20056;-65
2022/11/01 11:28:20;;;;;;;6.93;2.03;;;;;;;16.37;63.69;101476.69;5086785;28;20048;-65
2022/11/01 11:30:48;;;;;;;5.97;1.70;;;;;;;16.23;63.58;101471.59;5086634;28;20043;-65
2022/11/01 11:33:18;;;;;;;8.80;2.13;;;;;;;16.09;63.20;101467.53;5097747;28;20066;-65
2022/11/01 11:35:55;;;;;;;8.00;2.05;;;;;;;16.04;63.49;101461.19;5087248;28;20043;-65
2022/11/01 11:38:41;;;;;;;9.60;2.40;;;;;;;15.99;63.30;101470.06;5091921;28;20052;-64
2022/11/01 11:41:11;;;;;;;9.23;1.77;;;;;;;15.99;63.24;101461.91;5085268;28;20055;-63
2022/11/01 11:43:40;;;;;;;11.38;3.28;;;;;;;15.97;63.21;101453.22;5089883;28;20056;-63
2022/11/01 11:46:17;;;;;;;8.80;2.53;;;;;;;15.98;63.08;101470.28;5085447;28;20496;-64
2022/11/01 11:48:51;;;;;;;8.45;1.85;;;;;;;15.99;63.42;101467.34;5082817;28;20055;-63